Masuei Maru No41 — JD2285 — position and weather

sailwx.info

Track history (hours):
 
Tides and Currents Weather Stations Pressure Air Temp Water Temp Dewpoint Dewpoint Depression Visibility Wind Speed Wind Dir Waves Ship Positions

Masuei Maru No41

Last reported at 2018-Apr-26 00:25 UTC. Time now 2018-Apr-26 11:03 UTC.
Position N 34°13' E 135°09'.

Length 32 m.

Type: Tug. MMSI: 431301814.

Date/timePositionNaut miles runAvg speedWind from/ knotsBaromVisibWave heightAir tempDewpointWater temp
2018-Apr-26 00:25N 34°13' E 135°09'2 4.2
2018-Apr-25 23:57N 34°14' E 135°07'1 0.7
2018-Apr-25 23:14N 34°14' E 135°07'1 2.9
2018-Apr-25 23:00N 34°14' E 135°07'0 0.8
2018-Apr-25 22:30N 34°15' E 135°06'1 2.3
2018-Apr-25 22:00N 34°13' E 135°06'2 4.2
2018-Apr-25 21:29N 34°13' E 135°09'0 0.0
2018-Apr-24 06:09N 34°13' E 135°09'1 6.2
2018-Apr-24 06:00N 34°13' E 135°08'5 9.7
2018-Apr-24 05:30N 34°08' E 135°07'1 0.9
2018-Apr-24 04:42N 34°07' E 135°07'1 3.6
2018-Apr-24 04:28N 34°08' E 135°07'1 2.9
2018-Apr-24 03:59N 34°07' E 135°06'0 0.1
2018-Apr-24 02:22N 34°07' E 135°06'0 1.1
2018-Apr-24 01:55N 34°07' E 135°06'1 2.0
2018-Apr-24 01:29N 34°08' E 135°05'2 4.3
2018-Apr-24 01:00N 34°07' E 135°03'611.4
2018-Apr-24 00:29N 34°12' E 135°06'2 4.6
2018-Apr-24 00:00N 34°13' E 135°09'2 0.2
2018-Apr-23 08:55N 34°14' E 135°06'1 1.4
2018-Apr-23 08:01N 34°14' E 135°08'0 2.9
2018-Apr-23 08:00N 34°14' E 135°07'1 2.8
2018-Apr-23 07:30N 34°14' E 135°06'1 1.3
2018-Apr-23 07:00N 34°14' E 135°06'2 5.0
2018-Apr-23 06:30N 34°13' E 135°09'0 0.0
2018-Apr-22 08:44N 34°13' E 135°09'2 7.6
2018-Apr-22 08:30N 34°13' E 135°07'1 0.8
2018-Apr-22 06:58N 34°11' E 135°07'2 0.8
2018-Apr-22 03:46N 34°13' E 135°09'2 6.3
2018-Apr-22 03:30N 34°12' E 135°07'5 9.3
2018-Apr-22 03:00N 34°09' E 135°11'0 0.4
2018-Apr-22 02:26N 34°09' E 135°11'410.2
2018-Apr-22 02:00N 34°12' E 135°07'2 3.4
2018-Apr-22 01:29N 34°13' E 135°09'0 0.0
2018-Apr-22 00:59N 34°13' E 135°09'1 1.7
2018-Apr-22 00:28N 34°13' E 135°08'1 2.1
2018-Apr-21 23:55N 34°14' E 135°08'0 0.3
2018-Apr-21 23:25N 34°14' E 135°08'1 3.3
2018-Apr-21 22:59N 34°14' E 135°06'1 2.9
2018-Apr-21 22:30N 34°13' E 135°06'3 5.1
2018-Apr-21 22:00N 34°13' E 135°09'0 0.0
2018-Apr-21 21:30N 34°13' E 135°09'1 0.1
2018-Apr-21 05:38N 34°13' E 135°08'1 6.2
2018-Apr-21 05:30N 34°12' E 135°07'5 0.8
2018-Apr-20 23:42N 34°08' E 135°06'511.0
2018-Apr-20 23:16N 34°12' E 135°07'2 0.1
2018-Apr-19 10:23N 34°13' E 135°09'3 7.0
2018-Apr-19 10:00N 34°11' E 135°08'3 6.8
2018-Apr-19 09:30N 34°09' E 135°12'0 0.2
2018-Apr-19 08:59N 34°09' E 135°12'5 8.8
2018-Apr-19 08:24N 34°13' E 135°08'1 0.2
2018-Apr-19 02:13N 34°13' E 135°09'1 5.2
2018-Apr-19 02:00N 34°13' E 135°08'5 4.2
2018-Apr-19 00:52N 34°09' E 135°11'4 7.7
2018-Apr-19 00:23N 34°10' E 135°07'4 2.1
2018-Apr-18 22:28N 34°09' E 135°12'3 5.7
2018-Apr-18 21:59N 34°09' E 135°08'4 4.6
2018-Apr-18 21:06N 34°13' E 135°07'1 8.1
2018-Apr-18 21:00N 34°13' E 135°08'1 2.3
2018-Apr-18 20:30N 34°13' E 135°09'0 0.0
2018-Apr-18 06:56N 34°13' E 135°09'3 6.0
2018-Apr-18 06:30N 34°14' E 135°06'1 2.6
2018-Apr-18 06:00N 34°14' E 135°08'1 1.8
2018-Apr-18 05:19N 34°14' E 135°06'1 4.2
2018-Apr-18 05:00N 34°13' E 135°05'1 1.9
2018-Apr-18 04:29N 34°13' E 135°06'1 1.6
2018-Apr-18 03:46N 34°14' E 135°05'0 1.0
2018-Apr-18 03:29N 34°14' E 135°05'2 3.5
2018-Apr-18 03:00N 34°14' E 135°07'0 0.4
2018-Apr-18 02:30N 34°14' E 135°07'1 2.9
2018-Apr-18 02:00N 34°13' E 135°08'1 0.3
2018-Apr-17 23:50N 34°13' E 135°09'2 6.6
2018-Apr-17 23:29N 34°14' E 135°06'1 2.2
2018-Apr-17 22:53N 34°14' E 135°08'0 0.4
2018-Apr-17 22:30N 34°14' E 135°08'2 3.7
2018-Apr-17 21:59N 34°14' E 135°05'1 2.2
2018-Apr-17 21:30N 34°13' E 135°06'2 3.1
2018-Apr-17 21:00N 34°14' E 135°08'1 1.5
2018-Apr-17 20:30N 34°14' E 135°07'2 3.9
2018-Apr-17 19:58N 34°13' E 135°09'0 0.0
2018-Apr-17 08:55N 34°13' E 135°09'3 8.1
2018-Apr-17 08:30N 34°10' E 135°09'2 4.4
2018-Apr-17 08:00N 34°09' E 135°11'0 0.6
2018-Apr-17 07:17N 34°09' E 135°11'310.6
2018-Apr-17 06:59N 34°08' E 135°07'1 2.8
2018-Apr-17 06:27N 34°07' E 135°07'0 0.0
2018-Apr-17 05:54N 34°07' E 135°07'0 0.1
2018-Apr-17 05:29N 34°07' E 135°06'1 1.2
2018-Apr-17 04:59N 34°07' E 135°06'2 3.2
2018-Apr-17 04:30N 34°08' E 135°05'1 1.2
2018-Apr-17 04:00N 34°08' E 135°04'5 7.3
2018-Apr-17 03:22N 34°12' E 135°07'2 1.1
2018-Apr-17 01:29N 34°13' E 135°09'0 0.0
2018-Apr-17 00:59N 34°13' E 135°09'0 0.0
2018-Apr-17 00:29N 34°13' E 135°09'0 0.0
2018-Apr-16 23:59N 34°13' E 135°09'0 0.0
2018-Apr-16 23:29N 34°13' E 135°09'0 0.0
2018-Apr-16 22:59N 34°13' E 135°09'0 0.0
2018-Apr-16 22:29N 34°13' E 135°09'0 0.0
2018-Apr-16 02:28N 34°13' E 135°09'3 7.4
2018-Apr-16 02:00N 34°11' E 135°06'  
Track history (hours):
 
Tides and Currents Weather Stations Pressure Air Temp Water Temp Dewpoint Dewpoint Depression Visibility Wind Speed Wind Dir Waves Ship Positions

Masuei Maru No41

Last reported at 2018-Apr-26 00:25 UTC. Time now 2018-Apr-26 11:03 UTC.
Position N 34°13' E 135°09'.

Length 32 m.

Type: Tug. MMSI: 431301814.

Date/timePositionNaut miles runAvg speedWind from/ knotsBaromVisibWave heightAir tempDewpointWater temp
2018-Apr-26 00:25N 34°13' E 135°09'2 4.2
2018-Apr-25 23:57N 34°14' E 135°07'1 0.7
2018-Apr-25 23:14N 34°14' E 135°07'1 2.9
2018-Apr-25 23:00N 34°14' E 135°07'0 0.8
2018-Apr-25 22:30N 34°15' E 135°06'1 2.3
2018-Apr-25 22:00N 34°13' E 135°06'2 4.2
2018-Apr-25 21:29N 34°13' E 135°09'0 0.0
2018-Apr-24 06:09N 34°13' E 135°09'1 6.2
2018-Apr-24 06:00N 34°13' E 135°08'5 9.7
2018-Apr-24 05:30N 34°08' E 135°07'1 0.9
2018-Apr-24 04:42N 34°07' E 135°07'1 3.6
2018-Apr-24 04:28N 34°08' E 135°07'1 2.9
2018-Apr-24 03:59N 34°07' E 135°06'0 0.1
2018-Apr-24 02:22N 34°07' E 135°06'0 1.1
2018-Apr-24 01:55N 34°07' E 135°06'1 2.0
2018-Apr-24 01:29N 34°08' E 135°05'2 4.3
2018-Apr-24 01:00N 34°07' E 135°03'611.4
2018-Apr-24 00:29N 34°12' E 135°06'2 4.6
2018-Apr-24 00:00N 34°13' E 135°09'2 0.2
2018-Apr-23 08:55N 34°14' E 135°06'1 1.4
2018-Apr-23 08:01N 34°14' E 135°08'0 2.9
2018-Apr-23 08:00N 34°14' E 135°07'1 2.8
2018-Apr-23 07:30N 34°14' E 135°06'1 1.3
2018-Apr-23 07:00N 34°14' E 135°06'2 5.0
2018-Apr-23 06:30N 34°13' E 135°09'0 0.0
2018-Apr-22 08:44N 34°13' E 135°09'2 7.6
2018-Apr-22 08:30N 34°13' E 135°07'1 0.8
2018-Apr-22 06:58N 34°11' E 135°07'2 0.8
2018-Apr-22 03:46N 34°13' E 135°09'2 6.3
2018-Apr-22 03:30N 34°12' E 135°07'5 9.3
2018-Apr-22 03:00N 34°09' E 135°11'0 0.4
2018-Apr-22 02:26N 34°09' E 135°11'410.2
2018-Apr-22 02:00N 34°12' E 135°07'2 3.4
2018-Apr-22 01:29N 34°13' E 135°09'0 0.0
2018-Apr-22 00:59N 34°13' E 135°09'1 1.7
2018-Apr-22 00:28N 34°13' E 135°08'1 2.1
2018-Apr-21 23:55N 34°14' E 135°08'0 0.3
2018-Apr-21 23:25N 34°14' E 135°08'1 3.3
2018-Apr-21 22:59N 34°14' E 135°06'1 2.9
2018-Apr-21 22:30N 34°13' E 135°06'3 5.1
2018-Apr-21 22:00N 34°13' E 135°09'0 0.0
2018-Apr-21 21:30N 34°13' E 135°09'1 0.1
2018-Apr-21 05:38N 34°13' E 135°08'1 6.2
2018-Apr-21 05:30N 34°12' E 135°07'5 0.8
2018-Apr-20 23:42N 34°08' E 135°06'511.0
2018-Apr-20 23:16N 34°12' E 135°07'2 0.1
2018-Apr-19 10:23N 34°13' E 135°09'3 7.0
2018-Apr-19 10:00N 34°11' E 135°08'3 6.8
2018-Apr-19 09:30N 34°09' E 135°12'0 0.2
2018-Apr-19 08:59N 34°09' E 135°12'5 8.8
2018-Apr-19 08:24N 34°13' E 135°08'1 0.2
2018-Apr-19 02:13N 34°13' E 135°09'1 5.2
2018-Apr-19 02:00N 34°13' E 135°08'5 4.2
2018-Apr-19 00:52N 34°09' E 135°11'4 7.7
2018-Apr-19 00:23N 34°10' E 135°07'4 2.1
2018-Apr-18 22:28N 34°09' E 135°12'3 5.7
2018-Apr-18 21:59N 34°09' E 135°08'4 4.6
2018-Apr-18 21:06N 34°13' E 135°07'1 8.1
2018-Apr-18 21:00N 34°13' E 135°08'1 2.3
2018-Apr-18 20:30N 34°13' E 135°09'0 0.0
2018-Apr-18 06:56N 34°13' E 135°09'3 6.0
2018-Apr-18 06:30N 34°14' E 135°06'1 2.6
2018-Apr-18 06:00N 34°14' E 135°08'1 1.8
2018-Apr-18 05:19N 34°14' E 135°06'1 4.2
2018-Apr-18 05:00N 34°13' E 135°05'1 1.9
2018-Apr-18 04:29N 34°13' E 135°06'1 1.6
2018-Apr-18 03:46N 34°14' E 135°05'0 1.0
2018-Apr-18 03:29N 34°14' E 135°05'2 3.5
2018-Apr-18 03:00N 34°14' E 135°07'0 0.4
2018-Apr-18 02:30N 34°14' E 135°07'1 2.9
2018-Apr-18 02:00N 34°13' E 135°08'1 0.3
2018-Apr-17 23:50N 34°13' E 135°09'2 6.6
2018-Apr-17 23:29N 34°14' E 135°06'1 2.2
2018-Apr-17 22:53N 34°14' E 135°08'0 0.4
2018-Apr-17 22:30N 34°14' E 135°08'2 3.7
2018-Apr-17 21:59N 34°14' E 135°05'1 2.2
2018-Apr-17 21:30N 34°13' E 135°06'2 3.1
2018-Apr-17 21:00N 34°14' E 135°08'1 1.5
2018-Apr-17 20:30N 34°14' E 135°07'2 3.9
2018-Apr-17 19:58N 34°13' E 135°09'0 0.0
2018-Apr-17 08:55N 34°13' E 135°09'3 8.1
2018-Apr-17 08:30N 34°10' E 135°09'2 4.4
2018-Apr-17 08:00N 34°09' E 135°11'0 0.6
2018-Apr-17 07:17N 34°09' E 135°11'310.6
2018-Apr-17 06:59N 34°08' E 135°07'1 2.8
2018-Apr-17 06:27N 34°07' E 135°07'0 0.0
2018-Apr-17 05:54N 34°07' E 135°07'0 0.1
2018-Apr-17 05:29N 34°07' E 135°06'1 1.2
2018-Apr-17 04:59N 34°07' E 135°06'2 3.2
2018-Apr-17 04:30N 34°08' E 135°05'1 1.2
2018-Apr-17 04:00N 34°08' E 135°04'5 7.3
2018-Apr-17 03:22N 34°12' E 135°07'2 1.1
2018-Apr-17 01:29N 34°13' E 135°09'0 0.0
2018-Apr-17 00:59N 34°13' E 135°09'0 0.0
2018-Apr-17 00:29N 34°13' E 135°09'0 0.0
2018-Apr-16 23:59N 34°13' E 135°09'0 0.0
2018-Apr-16 23:29N 34°13' E 135°09'0 0.0
2018-Apr-16 22:59N 34°13' E 135°09'0 0.0
2018-Apr-16 22:29N 34°13' E 135°09'0 0.0
2018-Apr-16 02:28N 34°13' E 135°09'3 7.4
2018-Apr-16 02:00N 34°11' E 135°06'  

Dump ship's entire track history